Time;durP1;ratioP1;P1;durP2;ratioP2;P2;SDS_P1;SDS_P2;PMS_P1;PMS_P2;Temp;Humidity;BMP_temperature;BMP_pressure;BME280_temperature;BME280_humidity;BME280_pressure;Samples;Min_cycle;Max_cycle;Signal;HPM_P1;HPM_P2
2021/10/01 00:00:54;;;;;;;1.00;0.60;;;;;;;10.09;88.07;101299.06;5091179;28;20186;-73
2021/10/01 00:03:31;;;;;;;2.17;0.70;;;;;;;9.91;89.47;101302.50;5090704;28;20178;-73
2021/10/01 00:05:57;;;;;;;0.40;0.40;;;;;;;9.81;90.28;101299.84;5090426;28;20231;-73
2021/10/01 00:08:22;;;;;;;0.67;0.53;;;;;;;9.87;89.68;101298.75;5091043;28;20243;-73
2021/10/01 00:10:47;;;;;;;0.87;0.47;;;;;;;9.90;90.17;101295.44;5090754;28;20536;-73
2021/10/01 00:13:13;;;;;;;2.40;0.83;;;;;;;9.78;90.33;101297.72;5090658;28;20574;-73
2021/10/01 00:15:38;;;;;;;3.50;0.60;;;;;;;9.70;91.44;101290.16;5090320;28;20247;-74
2021/10/01 00:18:04;;;;;;;1.00;0.60;;;;;;;9.52;92.72;101292.44;5090516;28;20216;-73
2021/10/01 00:20:30;;;;;;;1.17;0.40;;;;;;;9.73;91.18;101289.56;5090507;28;20178;-73
2021/10/01 00:22:55;;;;;;;0.87;0.33;;;;;;;9.82;89.95;101288.66;5072343;28;20174;-74
2021/10/01 00:25:21;;;;;;;0.40;0.40;;;;;;;9.82;88.94;101283.19;5090236;28;20170;-73
2021/10/01 00:27:47;;;;;;;2.20;0.60;;;;;;;9.92;88.31;101274.13;5090356;28;20201;-73
2021/10/01 00:30:12;;;;;;;2.77;0.53;;;;;;;9.86;88.81;101271.72;5090626;28;20617;-73
2021/10/01 00:32:37;;;;;;;1.00;0.50;;;;;;;9.96;88.53;101274.34;5090518;28;20173;-73
2021/10/01 00:35:03;;;;;;;0.40;0.40;;;;;;;10.02;87.88;101265.84;5072090;28;20242;-73
2021/10/01 00:37:28;;;;;;;1.43;0.70;;;;;;;10.01;87.65;101263.41;5090493;28;20174;-73
2021/10/01 00:39:54;;;;;;;0.67;0.50;;;;;;;10.09;86.99;101260.84;5092643;28;20570;-73
2021/10/01 00:42:20;;;;;;;0.37;0.30;;;;;;;10.12;86.89;101252.06;5094406;28;20174;-73
2021/10/01 00:44:46;;;;;;;1.10;1.00;;;;;;;10.07;86.67;101254.88;5094080;28;20279;-73
2021/10/01 00:47:12;;;;;;;0.30;0.30;;;;;;;10.17;86.81;101255.88;5094318;28;20233;-73
2021/10/01 00:49:38;;;;;;;1.60;0.73;;;;;;;10.13;86.80;101247.47;5094235;28;20668;-73
2021/10/01 00:52:04;;;;;;;0.87;0.70;;;;;;;10.13;86.48;101245.53;5094318;28;20249;-72
2021/10/01 00:54:29;;;;;;;1.93;0.87;;;;;;;10.19;86.22;101246.28;5093852;28;20264;-72
2021/10/01 00:56:57;;;;;;;2.03;0.60;;;;;;;10.13;86.95;101255.66;5093837;28;20265;-73
2021/10/01 00:59:23;;;;;;;0.53;0.50;;;;;;;10.08;86.79;101242.03;5094523;28;20207;-73
2021/10/01 01:01:48;;;;;;;3.00;0.93;;;;;;;10.05;86.58;101248.88;5094490;28;20604;-73
2021/10/01 01:04:16;;;;;;;0.63;0.63;;;;;;;10.14;87.23;101246.34;5093893;28;20174;-72
2021/10/01 01:07:06;;;;;;;0.67;0.47;;;;;;;10.19;86.43;101250.94;5093777;28;20201;-72
2021/10/01 01:09:48;;;;;;;0.40;0.40;;;;;;;10.18;85.82;101250.13;5093904;28;20174;-73
2021/10/01 01:12:25;;;;;;;1.20;0.30;;;;;;;10.17;86.50;101245.75;5094114;28;20630;-73
2021/10/01 01:15:06;;;;;;;0.40;0.40;;;;;;;10.15;86.81;101247.97;5075218;28;20185;-73
2021/10/01 01:17:43;;;;;;;2.67;0.70;;;;;;;10.16;86.63;101246.88;5094086;28;20366;-72
2021/10/01 01:20:35;;;;;;;1.17;0.60;;;;;;;10.12;86.76;101243.88;5093851;28;20169;-72
2021/10/01 01:23:22;;;;;;;0.80;0.80;;;;;;;10.07;87.32;101234.94;5093688;28;20193;-72
2021/10/01 01:26:07;;;;;;;2.20;0.70;;;;;;;10.14;87.29;101227.25;5093739;28;20227;-72
2021/10/01 01:29:15;;;;;;;0.90;0.90;;;;;;;10.20;88.17;101233.44;5090600;28;20210;-73
2021/10/01 01:31:55;;;;;;;0.60;0.60;;;;;;;10.17;88.00;101221.19;5086628;28;20174;-73
2021/10/01 01:34:37;;;;;;;0.93;0.70;;;;;;;10.16;89.30;101216.84;5093475;28;20174;-74
2021/10/01 01:37:48;;;;;;;2.67;0.70;;;;;;;10.24;89.51;101209.94;5093610;28;20186;-73
2021/10/01 01:40:15;;;;;;;1.60;0.70;;;;;;;10.31;90.04;101211.22;5093754;28;20173;-73
2021/10/01 01:42:43;;;;;;;0.73;0.53;;;;;;;10.29;90.18;101212.63;5093562;28;20170;-74
2021/10/01 01:45:12;;;;;;;1.70;0.60;;;;;;;10.25;89.62;101200.66;5093381;28;20174;-73
2021/10/01 01:47:39;;;;;;;0.83;0.60;;;;;;;10.07;89.87;101194.81;5093457;28;20198;-73
2021/10/01 01:50:07;;;;;;;0.70;0.50;;;;;;;9.94;90.18;101191.94;5093119;28;20648;-73
2021/10/01 01:52:35;;;;;;;0.93;0.80;;;;;;;10.02;90.54;101189.41;5092739;28;20215;-73
2021/10/01 01:55:01;;;;;;;0.90;0.50;;;;;;;10.10;91.20;101183.28;5093225;28;20178;-73
2021/10/01 01:57:28;;;;;;;1.37;0.70;;;;;;;9.91;90.15;101184.34;5092996;28;20535;-73
2021/10/01 01:59:55;;;;;;;0.93;0.60;;;;;;;9.76;90.35;101183.38;5093344;28;20256;-73
2021/10/01 02:02:22;;;;;;;1.17;0.80;;;;;;;9.86;92.07;101176.22;5093003;28;20311;-73
2021/10/01 02:04:49;;;;;;;1.00;0.90;;;;;;;9.91;92.24;101174.22;5092997;28;20170;-73
2021/10/01 02:07:17;;;;;;;0.80;0.50;;;;;;;9.63;93.88;101164.13;5093061;28;20206;-73
2021/10/01 02:09:43;;;;;;;1.33;0.60;;;;;;;9.57;93.67;101162.56;5092995;28;20205;-72
2021/10/01 02:12:09;;;;;;;0.57;0.50;;;;;;;9.61;94.03;101155.44;5093013;28;20697;-73
2021/10/01 02:14:39;;;;;;;0.63;0.63;;;;;;;9.71;93.44;101149.88;5092686;28;20223;-72
2021/10/01 02:17:06;;;;;;;0.93;0.67;;;;;;;9.66;93.08;101147.19;5093164;28;20166;-73
2021/10/01 02:19:34;;;;;;;0.73;0.60;;;;;;;9.67;93.03;101141.44;5092729;28;20623;-72
2021/10/01 02:22:03;;;;;;;0.50;0.50;;;;;;;9.59;92.29;101136.63;5092892;28;20166;-73
2021/10/01 02:24:28;;;;;;;1.67;0.53;;;;;;;9.68;92.81;101145.78;5093002;28;20223;-73
2021/10/01 02:27:31;;;;;;;2.47;0.97;;;;;;;9.66;92.88;101139.00;5092603;28;20284;-73
2021/10/01 02:30:09;;;;;;;1.10;0.50;;;;;;;9.65;92.66;101137.38;5074497;28;20250;-73
2021/10/01 02:32:39;;;;;;;2.93;0.60;;;;;;;9.57;93.80;101140.75;5092577;28;20178;-73
2021/10/01 02:35:07;;;;;;;1.20;0.50;;;;;;;9.67;92.68;101132.44;5092347;28;20201;-73
2021/10/01 02:37:33;;;;;;;2.20;0.90;;;;;;;9.72;92.52;101125.03;5092459;28;20204;-73
2021/10/01 02:40:00;;;;;;;3.23;0.67;;;;;;;9.80;91.55;101126.31;5092298;28;20170;-73
2021/10/01 02:42:27;;;;;;;0.73;0.50;;;;;;;9.80;91.77;101118.94;5092461;28;20637;-73
2021/10/01 02:44:53;;;;;;;1.13;0.60;;;;;;;9.74;90.96;101124.75;5092128;28;20170;-74
2021/10/01 02:47:20;;;;;;;0.87;0.60;;;;;;;9.74;92.28;101127.47;5092312;28;20208;-73
2021/10/01 02:49:46;;;;;;;1.10;0.50;;;;;;;9.34;94.73;101115.03;5092298;28;20182;-73
2021/10/01 02:52:19;;;;;;;1.33;0.70;;;;;;;9.56;94.76;101125.47;5092314;28;20173;-72
2021/10/01 02:54:54;;;;;;;2.97;0.60;;;;;;;9.41;94.28;101110.88;5092038;28;20182;-73
2021/10/01 02:57:22;;;;;;;0.80;0.60;;;;;;;9.43;94.54;101118.78;5091878;28;20218;-73
2021/10/01 02:59:49;;;;;;;0.50;0.50;;;;;;;9.27;96.34;101107.19;5092204;28;20170;-72
2021/10/01 03:02:16;;;;;;;1.47;0.60;;;;;;;9.18;96.53;101106.19;5091889;28;20290;-73
2021/10/01 03:04:46;;;;;;;1.47;0.53;;;;;;;9.47;95.86;101112.44;5091672;28;20311;-73
2021/10/01 03:07:12;;;;;;;1.50;0.60;;;;;;;9.45;95.05;101109.19;5091755;28;20234;-73
2021/10/01 03:09:39;;;;;;;0.90;0.70;;;;;;;9.37;96.16;101111.72;5091975;28;20706;-73
2021/10/01 03:12:06;;;;;;;1.27;0.70;;;;;;;9.38;95.66;101111.44;5092236;28;20530;-73
2021/10/01 03:14:32;;;;;;;3.00;0.63;;;;;;;9.25;94.41;101103.91;5091580;28;20182;-73
2021/10/01 03:16:59;;;;;;;1.43;0.60;;;;;;;9.27;95.25;101096.28;5091554;28;20243;-73
2021/10/01 03:19:26;;;;;;;1.90;1.10;;;;;;;9.10;96.05;101098.59;5091768;28;20170;-72
2021/10/01 03:21:53;;;;;;;3.47;0.70;;;;;;;9.17;95.36;101099.09;5091676;28;20174;-72
2021/10/01 03:24:21;;;;;;;0.90;0.60;;;;;;;9.37;95.28;101095.38;5091372;28;20174;-73
2021/10/01 03:26:46;;;;;;;1.47;1.10;;;;;;;9.20;96.04;101098.53;5091548;28;20194;-73
2021/10/01 03:29:12;;;;;;;6.87;0.80;;;;;;;9.22;93.60;101093.59;5091425;28;20174;-73
2021/10/01 03:31:38;;;;;;;0.83;0.40;;;;;;;9.30;93.73;101092.97;5091516;28;20185;-73
2021/10/01 03:34:06;;;;;;;1.97;0.67;;;;;;;9.44;92.37;101093.94;5091350;28;20264;-72
2021/10/01 03:36:34;;;;;;;1.57;0.40;;;;;;;9.45;91.43;101097.47;5092026;28;20166;-72
2021/10/01 03:38:59;;;;;;;1.80;0.60;;;;;;;9.53;91.07;101099.56;5091664;28;20166;-74
2021/10/01 03:41:25;;;;;;;1.17;0.60;;;;;;;9.50;91.31;101106.41;5091336;28;20529;-73
2021/10/01 03:43:50;;;;;;;0.60;0.30;;;;;;;9.58;90.98;101107.72;5091023;28;20162;-72
2021/10/01 03:46:16;;;;;;;1.03;0.70;;;;;;;9.54;89.79;101102.00;5091082;28;20312;-73
2021/10/01 03:48:41;;;;;;;1.43;0.40;;;;;;;9.62;90.45;101103.31;5091407;28;20384;-73
2021/10/01 03:51:07;;;;;;;1.63;0.60;;;;;;;9.24;92.71;101091.38;5091163;28;20239;-73
2021/10/01 03:53:33;;;;;;;0.80;0.60;;;;;;;9.45;91.25;101090.13;5090914;28;20546;-73
2021/10/01 03:55:58;;;;;;;1.93;0.70;;;;;;;9.39;91.14;101087.72;5091051;28;20174;-73
2021/10/01 03:58:23;;;;;;;0.67;0.60;;;;;;;9.48;91.12;101083.25;5090721;28;20170;-73
2021/10/01 04:00:49;;;;;;;1.60;0.50;;;;;;;9.37;92.55;101073.56;5091156;28;20540;-72
2021/10/01 04:03:14;;;;;;;1.57;0.60;;;;;;;9.52;90.82;101087.03;5090907;28;20184;-73
2021/10/01 04:05:40;;;;;;;0.53;0.33;;;;;;;9.50;91.15;101068.22;5090741;28;20184;-72
2021/10/01 04:08:07;;;;;;;0.40;0.40;;;;;;;9.53;90.56;101070.38;5091203;28;20687;-72
2021/10/01 04:10:33;;;;;;;0.27;0.27;;;;;;;9.51;89.72;101069.84;5091044;28;20170;-72
2021/10/01 04:12:58;;;;;;;0.43;0.30;;;;;;;9.57;89.73;101070.63;5090811;28;20502;-72
2021/10/01 04:15:24;;;;;;;0.20;0.20;;;;;;;9.66;88.94;101068.88;5090112;28;20723;-73
2021/10/01 04:17:49;;;;;;;0.93;0.50;;;;;;;9.69;88.11;101072.94;5090703;28;20177;-73
2021/10/01 04:20:14;;;;;;;0.83;0.50;;;;;;;9.71;88.96;101062.56;5090720;28;20169;-72
2021/10/01 04:22:40;;;;;;;1.33;0.50;;;;;;;9.74;87.99;101062.00;5090561;28;20210;-72
2021/10/01 04:25:06;;;;;;;0.40;0.33;;;;;;;9.73;88.06;101058.44;5090372;28;20206;-73
2021/10/01 04:27:31;;;;;;;0.50;0.50;;;;;;;9.79;87.28;101059.19;5090650;28;20197;-72
2021/10/01 04:29:58;;;;;;;0.20;0.10;;;;;;;9.86;86.82;101072.50;5072813;28;20170;-72
2021/10/01 04:32:23;;;;;;;2.00;0.83;;;;;;;9.84;86.62;101068.16;5092304;28;20194;-72
2021/10/01 04:35:03;;;;;;;0.33;0.20;;;;;;;9.81;86.69;101074.16;5098542;28;20177;-72
2021/10/01 04:37:29;;;;;;;0.77;0.40;;;;;;;9.79;87.03;101060.00;5091712;28;20265;-72
2021/10/01 04:39:55;;;;;;;0.20;0.20;;;;;;;9.76;87.09;101066.03;5091253;28;20249;-73
2021/10/01 04:42:21;;;;;;;0.40;0.20;;;;;;;9.76;86.96;101066.03;5090711;28;20586;-72
2021/10/01 04:44:46;;;;;;;4.03;0.70;;;;;;;9.67;87.62;101062.31;5090658;28;20302;-73
2021/10/01 04:47:12;;;;;;;0.73;0.73;;;;;;;9.61;88.76;101065.41;5090541;28;20247;-72
2021/10/01 04:49:37;;;;;;;0.00;0.00;;;;;;;9.58;88.73;101055.88;5090881;28;20177;-72
2021/10/01 04:52:03;;;;;;;0.10;0.10;;;;;;;9.55;89.11;101053.75;5090561;28;20162;-73
2021/10/01 04:54:28;;;;;;;0.70;0.50;;;;;;;9.51;89.05;101056.22;5071965;28;20641;-72
2021/10/01 04:56:54;;;;;;;0.30;0.30;;;;;;;9.51;89.18;101058.13;5089931;28;20177;-72
2021/10/01 04:59:19;;;;;;;0.10;0.10;;;;;;;9.53;88.85;101054.00;5090537;28;20200;-72
2021/10/01 05:01:44;;;;;;;0.83;0.50;;;;;;;9.53;88.88;101056.72;5090224;28;20253;-72
2021/10/01 05:04:10;;;;;;;0.80;0.30;;;;;;;9.51;89.25;101047.22;5089993;28;20166;-72
2021/10/01 05:06:35;;;;;;;0.73;0.57;;;;;;;9.48;89.64;101047.81;5089900;28;20174;-72
2021/10/01 05:09:00;;;;;;;1.23;0.50;;;;;;;9.47;89.62;101047.00;5090324;28;20181;-72
2021/10/01 05:11:26;;;;;;;0.10;0.10;;;;;;;9.50;89.08;101051.88;5090354;28;20254;-72
2021/10/01 05:13:51;;;;;;;0.40;0.33;;;;;;;9.57;88.29;101056.19;5089888;28;20308;-72
2021/10/01 05:16:17;;;;;;;0.70;0.40;;;;;;;9.58;88.14;101046.91;5090102;28;20257;-73
2021/10/01 05:18:42;;;;;;;0.23;0.20;;;;;;;9.61;87.65;101055.31;5089936;28;20181;-72
2021/10/01 05:21:07;;;;;;;0.47;0.10;;;;;;;9.62;87.68;101047.94;5089913;28;20265;-72
2021/10/01 05:23:33;;;;;;;0.80;0.50;;;;;;;9.59;88.02;101046.59;5090151;28;20170;-72
2021/10/01 05:25:59;;;;;;;1.17;0.50;;;;;;;9.62;87.47;101058.84;5090731;28;20162;-73
2021/10/01 05:28:24;;;;;;;0.60;0.57;;;;;;;9.62;87.59;101058.84;5093781;28;20200;-72
2021/10/01 05:30:50;;;;;;;0.77;0.50;;;;;;;9.59;87.78;101053.97;5093571;28;20629;-72
2021/10/01 05:33:16;;;;;;;0.20;0.20;;;;;;;9.59;87.76;101060.25;5093640;28;20174;-72
2021/10/01 05:35:43;;;;;;;0.10;0.10;;;;;;;9.58;87.35;101058.63;5075553;28;20205;-72
2021/10/01 05:38:09;;;;;;;0.77;0.60;;;;;;;9.58;88.18;101055.06;5093885;28;20174;-73
2021/10/01 05:40:35;;;;;;;0.00;0.00;;;;;;;9.54;88.11;101060.28;5093543;28;20166;-72
2021/10/01 05:43:00;;;;;;;0.00;0.00;;;;;;;9.53;88.36;101042.28;5089004;28;20201;-73
2021/10/01 05:45:26;;;;;;;0.50;0.47;;;;;;;9.56;87.64;101052.63;5093231;28;20540;-72
2021/10/01 05:47:52;;;;;;;1.33;0.60;;;;;;;9.57;87.90;101046.09;5093343;28;20202;-72
2021/10/01 05:50:17;;;;;;;1.33;0.63;;;;;;;9.58;88.07;101052.34;5093524;28;20311;-72
2021/10/01 05:55:08;;;;;;;2.23;0.50;;;;;;;9.62;87.75;101059.66;5093596;28;20178;-72
2021/10/01 05:57:34;;;;;;;0.50;0.50;;;;;;;9.64;86.84;101054.72;5093284;28;20178;-72
2021/10/01 06:00:00;;;;;;;0.63;0.47;;;;;;;9.67;87.17;101053.31;5093229;28;20266;-73
2021/10/01 06:02:27;;;;;;;0.27;0.27;;;;;;;9.73;86.76;101052.19;5093137;28;20621;-73
2021/10/01 06:04:52;;;;;;;0.93;0.40;;;;;;;9.72;86.63;101048.63;5092929;28;20180;-74
2021/10/01 06:07:18;;;;;;;0.40;0.30;;;;;;;9.76;86.67;101060.59;5093278;28;20193;-74
2021/10/01 06:09:44;;;;;;;0.60;0.60;;;;;;;9.78;87.20;101054.84;5093095;28;20193;-73
2021/10/01 06:12:12;;;;;;;0.10;0.10;;;;;;;9.82;86.64;101048.50;5093051;28;20170;-72
2021/10/01 06:14:37;;;;;;;0.20;0.20;;;;;;;9.84;87.18;101050.97;5092820;28;20178;-73
2021/10/01 06:17:04;;;;;;;2.10;0.70;;;;;;;9.89;86.40;101050.06;5074660;28;20192;-73
2021/10/01 06:19:32;;;;;;;0.90;0.60;;;;;;;9.92;86.45;101065.84;5092899;28;20185;-73
2021/10/01 06:21:58;;;;;;;0.70;0.37;;;;;;;9.95;86.07;101068.00;5092868;28;20174;-73
2021/10/01 06:24:23;;;;;;;0.30;0.30;;;;;;;10.00;86.36;101067.97;5092610;28;20679;-72
2021/10/01 06:26:49;;;;;;;0.60;0.50;;;;;;;10.03;86.48;101061.91;5074484;28;20197;-73
2021/10/01 06:29:15;;;;;;;0.30;0.30;;;;;;;10.02;85.68;101057.56;5093123;28;20186;-73
2021/10/01 06:31:41;;;;;;;0.87;0.37;;;;;;;10.06;86.42;101062.13;5092526;28;20567;-72
2021/10/01 06:34:07;;;;;;;0.83;0.30;;;;;;;10.06;86.53;101062.13;5092427;28;20169;-72
2021/10/01 06:36:32;;;;;;;1.50;0.60;;;;;;;10.08;87.22;101062.66;5092134;28;20532;-72
2021/10/01 06:38:57;;;;;;;2.57;0.70;;;;;;;10.09;86.33;101058.00;5092666;28;20607;-73
2021/10/01 06:41:23;;;;;;;1.67;0.60;;;;;;;10.13;86.33;101051.69;5092414;28;20184;-72
2021/10/01 06:43:56;;;;;;;0.40;0.40;;;;;;;10.18;86.37;101061.72;5092175;28;20173;-81
2021/10/01 06:46:45;;;;;;;0.47;0.47;;;;;;;10.26;85.68;101063.00;5092277;28;20199;-76
2021/10/01 07:24:11;;;;;;;0.57;0.57;;;;;;;11.27;83.69;101033.22;5091606;28;20272;-73
2021/10/01 08:18:22;;;;;;;0.40;0.40;;;;;;;12.03;76.07;101022.75;5091423;28;20239;-74
2021/10/01 08:20:45;;;;;;;2.43;0.40;;;;;;;12.21;74.85;101010.84;5091115;28;20161;-74
2021/10/01 08:23:10;;;;;;;1.30;0.30;;;;;;;12.27;74.89;101008.78;5090757;28;20222;-73
2021/10/01 08:25:36;;;;;;;0.30;0.30;;;;;;;12.27;74.88;101014.25;5090768;28;20629;-74
2021/10/01 08:28:03;;;;;;;0.63;0.40;;;;;;;12.29;74.42;101012.00;5090305;28;20205;-74
2021/10/01 08:30:29;;;;;;;0.30;0.20;;;;;;;12.32;74.23;101014.97;5090667;28;20261;-74
2021/10/01 08:32:54;;;;;;;0.93;0.30;;;;;;;12.39;75.41;101018.06;5090529;28;20166;-74
2021/10/01 08:35:22;;;;;;;0.23;0.23;;;;;;;12.49;73.32;101017.84;5090524;28;20699;-74
2021/10/01 08:37:52;;;;;;;0.50;0.10;;;;;;;12.55;72.39;101012.25;5090465;28;20256;-74
2021/10/01 08:40:18;;;;;;;0.07;0.07;;;;;;;12.58;72.52;101014.34;5090598;28;20273;-74
2021/10/01 08:42:46;;;;;;;0.63;0.50;;;;;;;12.57;74.33;101010.00;5090505;28;20181;-74
2021/10/01 08:45:13;;;;;;;0.73;0.43;;;;;;;12.70;73.51;101011.88;5090410;28;20186;-74
2021/10/01 08:47:40;;;;;;;0.93;0.90;;;;;;;12.73;73.80;101008.50;5090500;28;20886;-74
2021/10/01 08:50:09;;;;;;;0.57;0.57;;;;;;;12.82;72.83;101007.44;5090554;28;20185;-74
2021/10/01 08:52:35;;;;;;;1.33;0.30;;;;;;;12.90;72.62;101005.91;5090471;28;20564;-74
2021/10/01 08:55:03;;;;;;;1.90;0.73;;;;;;;13.00;72.13;101002.88;5090312;28;20265;-73
2021/10/01 08:57:29;;;;;;;0.57;0.40;;;;;;;13.10;72.12;100988.09;5090013;28;20239;-73
2021/10/01 08:59:54;;;;;;;0.40;0.40;;;;;;;13.19;70.00;100991.72;5091081;28;20261;-73
2021/10/01 09:02:20;;;;;;;2.30;0.60;;;;;;;13.24;69.19;100988.84;5094170;28;20266;-74
2021/10/01 09:04:45;;;;;;;1.73;0.47;;;;;;;13.23;69.74;100986.41;5094142;28;20210;-73
2021/10/01 09:07:11;;;;;;;0.40;0.30;;;;;;;13.33;69.02;100986.16;5094210;28;20312;-74
2021/10/01 09:09:43;;;;;;;1.20;0.63;;;;;;;13.42;69.35;100984.22;5094236;28;20636;-74
2021/10/01 09:12:09;;;;;;;0.57;0.43;;;;;;;13.46;69.08;100981.69;5094076;28;20256;-73
2021/10/01 09:14:47;;;;;;;2.23;0.47;;;;;;;13.53;69.44;100966.34;5094007;28;20166;-74
2021/10/01 09:17:16;;;;;;;1.50;0.20;;;;;;;13.60;67.40;100974.94;5074103;28;20177;-73
2021/10/01 09:19:43;;;;;;;0.30;0.30;;;;;;;13.72;67.90;100973.50;5091905;28;20732;-73
2021/10/01 09:22:08;;;;;;;0.37;0.37;;;;;;;13.73;67.59;100972.38;5093789;28;20170;-73
2021/10/01 09:24:41;;;;;;;2.13;0.70;;;;;;;13.79;67.09;100988.38;5076590;28;20314;-73
2021/10/01 09:27:07;;;;;;;1.43;0.50;;;;;;;13.87;67.87;100973.03;5075523;28;20292;-73
2021/10/01 09:29:35;;;;;;;0.30;0.30;;;;;;;13.97;68.18;100981.00;5093690;28;20181;-73
2021/10/01 09:32:09;;;;;;;1.03;0.50;;;;;;;13.98;68.10;100969.69;5093977;28;20253;-73
2021/10/01 09:34:38;;;;;;;0.10;0.10;;;;;;;13.99;66.85;100974.03;5093933;28;20193;-73
2021/10/01 09:37:11;;;;;;;0.40;0.30;;;;;;;14.05;68.51;100980.22;5093872;28;20182;-74
2021/10/01 09:39:50;;;;;;;1.67;0.20;;;;;;;14.19;69.64;100975.38;5093824;28;20162;-74
2021/10/01 09:42:18;;;;;;;0.30;0.10;;;;;;;14.23;67.39;100973.59;5093590;28;20173;-74
2021/10/01 09:45:01;;;;;;;0.87;0.67;;;;;;;14.21;66.48;100964.84;5093456;28;20172;-73
2021/10/01 09:47:29;;;;;;;0.40;0.30;;;;;;;14.26;67.33;100972.94;5093829;28;20314;-73
2021/10/01 09:49:57;;;;;;;1.90;0.40;;;;;;;14.37;66.98;100975.38;5093474;28;20173;-74
2021/10/01 09:52:22;;;;;;;2.03;0.50;;;;;;;14.37;67.47;100978.13;5093351;28;20172;-74
2021/10/01 09:54:47;;;;;;;0.93;0.50;;;;;;;14.41;67.79;100968.09;5093168;28;20170;-74
2021/10/01 09:57:13;;;;;;;0.40;0.30;;;;;;;14.40;67.08;100947.22;5093247;28;20174;-75
2021/10/01 09:59:39;;;;;;;0.50;0.30;;;;;;;14.47;66.31;100951.16;5093328;28;20166;-75
2021/10/01 10:02:07;;;;;;;1.30;0.50;;;;;;;14.54;66.62;100950.63;5093286;28;20174;-76
2021/10/01 10:04:45;;;;;;;0.43;0.37;;;;;;;14.59;67.98;100945.75;5093001;28;20487;-75
2021/10/01 10:07:20;;;;;;;1.03;0.30;;;;;;;14.64;67.56;100953.06;5092940;28;20197;-74
2021/10/01 10:09:49;;;;;;;1.53;0.40;;;;;;;14.59;66.22;100947.72;5093040;28;20169;-75
2021/10/01 10:12:36;;;;;;;0.60;0.37;;;;;;;14.53;67.80;100938.84;5074304;28;20188;-75
2021/10/01 10:15:08;;;;;;;1.60;0.30;;;;;;;14.58;66.87;100937.84;5092859;28;20166;-74
2021/10/01 10:17:34;;;;;;;0.83;0.47;;;;;;;14.52;68.21;100941.91;5092823;28;20227;-74
2021/10/01 10:20:02;;;;;;;0.50;0.40;;;;;;;14.59;67.24;100933.97;5093033;28;20626;-75
2021/10/01 10:22:30;;;;;;;0.97;0.37;;;;;;;14.61;67.75;100930.88;5092728;28;20180;-76
2021/10/01 10:24:56;;;;;;;0.23;0.23;;;;;;;14.56;68.43;100918.94;5092549;28;20197;-76
2021/10/01 10:27:25;;;;;;;4.73;0.30;;;;;;;14.58;67.71;100910.34;5090798;28;20754;-76
2021/10/01 10:29:53;;;;;;;0.53;0.40;;;;;;;14.61;67.61;100904.22;5092459;28;20295;-76
2021/10/01 10:32:23;;;;;;;0.30;0.30;;;;;;;14.69;66.22;100913.56;5092237;28;20253;-75
2021/10/01 10:34:59;;;;;;;2.27;0.50;;;;;;;14.65;67.09;100904.38;5092612;28;20178;-75
2021/10/01 10:37:56;;;;;;;0.20;0.20;;;;;;;14.69;66.17;100902.56;5092537;28;20537;-74
2021/10/01 10:40:22;;;;;;;1.47;0.53;;;;;;;14.75;65.00;100891.03;5054131;28;20190;-75
2021/10/01 10:43:00;;;;;;;0.93;0.40;;;;;;;14.79;64.34;100888.47;5084892;28;20213;-74
2021/10/01 10:45:27;;;;;;;0.60;0.60;;;;;;;14.80;64.93;100879.88;5073331;28;20182;-75
2021/10/01 10:48:11;;;;;;;0.20;0.17;;;;;;;14.91;63.57;100887.78;5085455;28;20209;-74
2021/10/01 10:50:50;;;;;;;0.10;0.10;;;;;;;14.95;64.24;100889.53;5092143;28;20507;-75
2021/10/01 10:53:20;;;;;;;0.30;0.30;;;;;;;15.10;63.02;100879.91;5090533;28;20178;-75
2021/10/01 10:55:51;;;;;;;0.80;0.20;;;;;;;15.13;61.50;100871.81;5087609;28;20193;-76
2021/10/01 10:58:26;;;;;;;0.23;0.20;;;;;;;15.17;61.37;100872.75;5091650;28;20203;-75
2021/10/01 11:01:01;;;;;;;0.40;0.40;;;;;;;15.22;60.31;100873.72;5091982;28;20252;-75
2021/10/01 11:03:33;;;;;;;1.63;0.33;;;;;;;15.25;60.83;100865.59;5092124;28;20154;-76
2021/10/01 11:06:12;;;;;;;0.00;0.00;;;;;;;15.31;59.78;100868.94;5084992;28;20719;-76
2021/10/01 11:08:49;;;;;;;0.40;0.20;;;;;;;15.32;60.11;100857.59;5097881;28;20209;-75
2021/10/01 11:11:29;;;;;;;0.97;0.23;;;;;;;15.39;59.35;100863.41;5099804;28;20173;-75
2021/10/01 11:14:25;;;;;;;12.70;2.27;;;;;;;15.39;61.37;100851.59;5092472;28;20181;-76
2021/10/01 11:16:53;;;;;;;0.30;0.30;;;;;;;15.45;59.11;100851.03;5082032;28;20201;-76
2021/10/01 11:19:38;;;;;;;1.73;0.30;;;;;;;15.47;58.86;100845.19;5091831;28;20173;-76
2021/10/01 11:22:28;;;;;;;0.27;0.23;;;;;;;15.55;56.33;100840.78;5086649;28;20653;-76
2021/10/01 11:24:59;;;;;;;0.77;0.30;;;;;;;15.74;57.11;100852.16;5076012;28;20189;-75
2021/10/01 11:27:25;;;;;;;0.57;0.40;;;;;;;16.19;54.53;100854.22;5091600;28;20202;-75
2021/10/01 11:29:50;;;;;;;0.30;0.30;;;;;;;16.63;51.69;100847.91;5091644;28;20174;-75
2021/10/01 11:32:22;;;;;;;0.50;0.10;;;;;;;16.79;51.29;100848.09;5091598;28;20173;-74
2021/10/01 11:34:57;;;;;;;14.33;1.23;;;;;;;17.09;49.63;100837.63;5089247;28;20239;-73
2021/10/01 11:37:31;;;;;;;0.57;0.20;;;;;;;17.25;51.35;100833.00;5091357;28;20180;-75
2021/10/01 11:40:03;;;;;;;0.50;0.23;;;;;;;17.50;51.15;100830.19;5091361;28;20174;-75
2021/10/01 11:42:34;;;;;;;0.57;0.40;;;;;;;17.38;48.67;100838.53;5088415;28;20647;-73
2021/10/01 11:45:12;;;;;;;0.13;0.00;;;;;;;17.49;48.73;100955.69;5085342;28;20582;-73
2021/10/01 11:48:04;;;;;;;0.10;0.10;;;;;;;17.55;48.22;100825.25;5091280;28;20237;-74
2021/10/01 11:50:46;;;;;;;0.20;0.20;;;;;;;17.62;48.45;100829.38;5070839;28;20175;-73
2021/10/01 11:53:22;;;;;;;0.30;0.30;;;;;;;17.68;49.03;100819.69;5071026;28;20649;-75
2021/10/01 11:55:55;;;;;;;0.30;0.20;;;;;;;17.87;50.26;100843.97;5070970;28;20182;-74
2021/10/01 11:58:23;;;;;;;0.53;0.23;;;;;;;18.00;49.75;100826.16;5071128;28;20546;-74
2021/10/01 12:00:48;;;;;;;0.53;0.30;;;;;;;18.07;47.32;100813.34;5070925;28;20182;-74
2021/10/01 12:03:15;;;;;;;1.50;0.17;;;;;;;18.09;47.20;100804.72;5088060;28;20234;-75
2021/10/01 12:05:49;;;;;;;1.47;0.40;;;;;;;17.93;47.00;100793.59;5090779;28;20185;-75
2021/10/01 12:08:19;;;;;;;1.40;0.53;;;;;;;17.88;46.41;100776.47;5090737;28;20201;-75
2021/10/01 12:10:46;;;;;;;0.13;0.10;;;;;;;17.96;45.87;100783.81;5091020;28;20170;-75
2021/10/01 12:13:22;;;;;;;0.30;0.20;;;;;;;18.10;46.52;100771.16;5090909;28;20223;-75
2021/10/01 12:16:02;;;;;;;1.03;0.27;;;;;;;18.12;44.17;100773.56;5090848;28;20161;-74
2021/10/01 12:18:33;;;;;;;1.03;0.30;;;;;;;18.24;46.08;100759.69;5090801;28;20268;-74
2021/10/01 12:21:14;;;;;;;0.20;0.20;;;;;;;18.31;43.62;100759.06;5090342;28;20182;-74
2021/10/01 12:23:44;;;;;;;0.73;0.40;;;;;;;18.13;44.46;100761.34;5090231;28;20269;-74
2021/10/01 12:26:27;;;;;;;0.73;0.17;;;;;;;18.17;44.21;100759.47;5090805;28;20174;-75
2021/10/01 12:28:58;;;;;;;0.57;0.33;;;;;;;18.21;43.47;100763.13;5090994;28;20193;-75
2021/10/01 12:31:29;;;;;;;0.37;0.20;;;;;;;18.27;43.12;100763.69;5090594;28;20173;-74
2021/10/01 12:33:55;;;;;;;0.90;0.40;;;;;;;18.16;43.02;100760.63;5090523;28;20173;-74
2021/10/01 12:36:22;;;;;;;0.40;0.40;;;;;;;18.27;43.11;100747.91;5094001;28;20248;-75
2021/10/01 12:38:48;;;;;;;0.23;0.10;;;;;;;18.28;43.09;100737.63;5094401;28;20177;-74
2021/10/01 12:41:16;;;;;;;0.77;0.20;;;;;;;18.38;42.81;100737.13;5094769;28;20181;-74
2021/10/01 12:43:57;;;;;;;0.57;0.30;;;;;;;18.42;42.54;100749.88;5094201;28;20230;-75
2021/10/01 12:46:34;;;;;;;0.10;0.10;;;;;;;18.50;43.03;100741.72;5094740;28;20170;-75
2021/10/01 12:49:18;;;;;;;0.40;0.20;;;;;;;18.56;42.12;100754.97;5094722;28;20216;-75
2021/10/01 12:52:02;;;;;;;1.67;0.57;;;;;;;18.61;42.84;100737.28;5094642;28;20535;-75
2021/10/01 12:54:41;;;;;;;6.40;3.80;;;;;;;18.60;43.33;100738.44;5094495;28;20158;-74
2021/10/01 12:57:20;;;;;;;1.20;0.27;;;;;;;18.76;43.37;100735.69;5094621;28;20169;-74
2021/10/01 12:59:58;;;;;;;1.03;0.30;;;;;;;18.69;43.08;100731.59;5094942;28;20172;-74
2021/10/01 13:02:41;;;;;;;0.97;0.20;;;;;;;18.61;42.42;100712.34;5094378;28;20231;-75
2021/10/01 13:05:17;;;;;;;1.20;0.30;;;;;;;18.56;43.06;100709.88;5094121;28;20193;-74
2021/10/01 13:07:47;;;;;;;0.10;0.10;;;;;;;18.64;43.40;100709.69;5094110;28;20197;-74
2021/10/01 13:10:12;;;;;;;1.10;0.30;;;;;;;18.67;43.88;100717.31;5094299;28;20169;-74